sensor_id;sensor_type;location;lat;lon;timestamp;temperature;humidity
49579;DHT22;35483;50.828;3.228;2023-06-14T00:02:12;21.80;57.00
49579;DHT22;35483;50.828;3.228;2023-06-14T00:04:38;21.70;56.90
49579;DHT22;35483;50.828;3.228;2023-06-14T00:07:08;21.70;57.00
49579;DHT22;35483;50.828;3.228;2023-06-14T00:09:35;21.70;57.10
49579;DHT22;35483;50.828;3.228;2023-06-14T00:12:01;21.70;57.10
49579;DHT22;35483;50.828;3.228;2023-06-14T00:14:27;21.60;57.00
49579;DHT22;35483;50.828;3.228;2023-06-14T00:16:53;21.60;57.10
49579;DHT22;35483;50.828;3.228;2023-06-14T00:19:24;21.60;57.70
49579;DHT22;35483;50.828;3.228;2023-06-14T00:21:51;21.50;57.10
49579;DHT22;35483;50.828;3.228;2023-06-14T00:24:19;21.50;57.30
49579;DHT22;35483;50.828;3.228;2023-06-14T00:26:45;21.40;57.30
49579;DHT22;35483;50.828;3.228;2023-06-14T00:29:11;21.50;57.40
49579;DHT22;35483;50.828;3.228;2023-06-14T00:31:37;21.40;57.40
49579;DHT22;35483;50.828;3.228;2023-06-14T00:34:03;21.30;57.50
49579;DHT22;35483;50.828;3.228;2023-06-14T00:36:29;21.30;57.60
49579;DHT22;35483;50.828;3.228;2023-06-14T00:38:55;21.30;57.70
49579;DHT22;35483;50.828;3.228;2023-06-14T00:41:22;21.20;57.60
49579;DHT22;35483;50.828;3.228;2023-06-14T00:43:48;21.20;57.90
49579;DHT22;35483;50.828;3.228;2023-06-14T00:46:14;21.10;57.90
49579;DHT22;35483;50.828;3.228;2023-06-14T00:48:40;21.10;57.90
49579;DHT22;35483;50.828;3.228;2023-06-14T00:51:06;21.00;57.90
49579;DHT22;35483;50.828;3.228;2023-06-14T00:53:32;21.00;57.90
49579;DHT22;35483;50.828;3.228;2023-06-14T00:56:01;21.00;57.90
49579;DHT22;35483;50.828;3.228;2023-06-14T00:58:27;21.00;58.10
49579;DHT22;35483;50.828;3.228;2023-06-14T01:00:54;20.90;58.20
49579;DHT22;35483;50.828;3.228;2023-06-14T01:03:21;20.90;58.10
49579;DHT22;35483;50.828;3.228;2023-06-14T01:05:59;20.80;58.20
49579;DHT22;35483;50.828;3.228;2023-06-14T01:08:47;20.80;58.30
49579;DHT22;35483;50.828;3.228;2023-06-14T01:11:28;20.70;60.40
49579;DHT22;35483;50.828;3.228;2023-06-14T01:13:58;20.70;62.40
49579;DHT22;35483;50.828;3.228;2023-06-14T01:16:25;20.60;58.50
49579;DHT22;35483;50.828;3.228;2023-06-14T01:18:52;20.60;58.40
49579;DHT22;35483;50.828;3.228;2023-06-14T01:21:26;20.60;58.50
49579;DHT22;35483;50.828;3.228;2023-06-14T01:23:54;20.60;59.30
49579;DHT22;35483;50.828;3.228;2023-06-14T01:26:21;20.50;58.60
49579;DHT22;35483;50.828;3.228;2023-06-14T01:28:49;20.50;58.50
49579;DHT22;35483;50.828;3.228;2023-06-14T01:31:20;20.50;58.80
49579;DHT22;35483;50.828;3.228;2023-06-14T01:33:48;20.50;59.60
49579;DHT22;35483;50.828;3.228;2023-06-14T01:36:16;20.40;58.80
49579;DHT22;35483;50.828;3.228;2023-06-14T01:38:43;20.40;58.90
49579;DHT22;35483;50.828;3.228;2023-06-14T01:41:10;20.40;58.90
49579;DHT22;35483;50.828;3.228;2023-06-14T01:43:36;20.40;59.00
49579;DHT22;35483;50.828;3.228;2023-06-14T01:46:03;20.30;58.90
49579;DHT22;35483;50.828;3.228;2023-06-14T01:48:29;20.30;58.90
49579;DHT22;35483;50.828;3.228;2023-06-14T01:50:55;20.30;58.90
49579;DHT22;35483;50.828;3.228;2023-06-14T01:53:21;20.30;59.00
49579;DHT22;35483;50.828;3.228;2023-06-14T01:55:47;20.30;59.20
49579;DHT22;35483;50.828;3.228;2023-06-14T01:58:14;20.20;59.80
49579;DHT22;35483;50.828;3.228;2023-06-14T02:00:42;20.20;59.50
49579;DHT22;35483;50.828;3.228;2023-06-14T02:03:09;20.10;59.30
49579;DHT22;35483;50.828;3.228;2023-06-14T02:05:35;20.10;59.50
49579;DHT22;35483;50.828;3.228;2023-06-14T02:08:01;20.10;59.40
49579;DHT22;35483;50.828;3.228;2023-06-14T02:10:28;20.00;59.50
49579;DHT22;35483;50.828;3.228;2023-06-14T02:12:54;20.00;60.00
49579;DHT22;35483;50.828;3.228;2023-06-14T02:15:21;20.00;59.40
49579;DHT22;35483;50.828;3.228;2023-06-14T02:17:47;20.00;59.70
49579;DHT22;35483;50.828;3.228;2023-06-14T02:20:15;20.00;59.60
49579;DHT22;35483;50.828;3.228;2023-06-14T02:22:41;19.90;59.60
49579;DHT22;35483;50.828;3.228;2023-06-14T02:25:08;19.90;59.70
49579;DHT22;35483;50.828;3.228;2023-06-14T02:27:34;19.90;59.90
49579;DHT22;35483;50.828;3.228;2023-06-14T02:30:00;19.90;60.00
49579;DHT22;35483;50.828;3.228;2023-06-14T02:32:26;19.80;60.00
49579;DHT22;35483;50.828;3.228;2023-06-14T02:34:53;19.70;60.10
49579;DHT22;35483;50.828;3.228;2023-06-14T02:37:20;19.70;59.90
49579;DHT22;35483;50.828;3.228;2023-06-14T02:39:46;19.70;59.80
49579;DHT22;35483;50.828;3.228;2023-06-14T02:42:12;19.70;59.90
49579;DHT22;35483;50.828;3.228;2023-06-14T02:44:39;19.70;59.70
49579;DHT22;35483;50.828;3.228;2023-06-14T02:47:05;19.70;59.90
49579;DHT22;35483;50.828;3.228;2023-06-14T02:49:31;19.70;60.00
49579;DHT22;35483;50.828;3.228;2023-06-14T02:51:57;19.70;60.00
49579;DHT22;35483;50.828;3.228;2023-06-14T02:54:23;19.70;60.30
49579;DHT22;35483;50.828;3.228;2023-06-14T02:56:49;19.70;60.00
49579;DHT22;35483;50.828;3.228;2023-06-14T02:59:15;19.60;60.00
49579;DHT22;35483;50.828;3.228;2023-06-14T03:01:42;19.60;60.30
49579;DHT22;35483;50.828;3.228;2023-06-14T03:04:09;19.60;60.10
49579;DHT22;35483;50.828;3.228;2023-06-14T03:06:35;19.60;60.00
49579;DHT22;35483;50.828;3.228;2023-06-14T03:09:03;19.60;59.90
49579;DHT22;35483;50.828;3.228;2023-06-14T03:11:35;19.60;60.30
49579;DHT22;35483;50.828;3.228;2023-06-14T03:14:01;19.60;60.20
49579;DHT22;35483;50.828;3.228;2023-06-14T03:16:29;19.60;60.00
49579;DHT22;35483;50.828;3.228;2023-06-14T03:18:57;19.60;60.00
49579;DHT22;35483;50.828;3.228;2023-06-14T03:21:23;19.60;59.90
49579;DHT22;35483;50.828;3.228;2023-06-14T03:23:50;19.60;60.10
49579;DHT22;35483;50.828;3.228;2023-06-14T03:26:16;19.50;60.00
49579;DHT22;35483;50.828;3.228;2023-06-14T03:28:45;19.60;60.10
49579;DHT22;35483;50.828;3.228;2023-06-14T03:31:12;19.50;60.10
49579;DHT22;35483;50.828;3.228;2023-06-14T03:33:38;19.50;60.20
49579;DHT22;35483;50.828;3.228;2023-06-14T03:36:05;19.50;60.30
49579;DHT22;35483;50.828;3.228;2023-06-14T03:38:33;19.50;60.40
49579;DHT22;35483;50.828;3.228;2023-06-14T03:40:59;19.50;60.20
49579;DHT22;35483;50.828;3.228;2023-06-14T03:43:27;19.50;60.10
49579;DHT22;35483;50.828;3.228;2023-06-14T03:45:54;19.50;60.40
49579;DHT22;35483;50.828;3.228;2023-06-14T03:48:20;19.50;60.20
49579;DHT22;35483;50.828;3.228;2023-06-14T03:50:46;19.50;60.30
49579;DHT22;35483;50.828;3.228;2023-06-14T03:53:12;19.50;60.30
49579;DHT22;35483;50.828;3.228;2023-06-14T03:55:38;19.50;60.20
49579;DHT22;35483;50.828;3.228;2023-06-14T03:58:04;19.50;60.10
49579;DHT22;35483;50.828;3.228;2023-06-14T04:00:30;19.50;60.20
49579;DHT22;35483;50.828;3.228;2023-06-14T04:02:57;19.50;60.00
49579;DHT22;35483;50.828;3.228;2023-06-14T04:05:24;19.50;60.00
49579;DHT22;35483;50.828;3.228;2023-06-14T04:07:53;19.60;60.20
49579;DHT22;35483;50.828;3.228;2023-06-14T04:10:21;19.60;60.00
49579;DHT22;35483;50.828;3.228;2023-06-14T04:12:48;19.60;60.10
49579;DHT22;35483;50.828;3.228;2023-06-14T04:15:14;19.60;59.90
49579;DHT22;35483;50.828;3.228;2023-06-14T04:17:40;19.60;60.00
49579;DHT22;35483;50.828;3.228;2023-06-14T04:20:07;19.60;59.80
49579;DHT22;35483;50.828;3.228;2023-06-14T04:22:35;19.60;59.90
49579;DHT22;35483;50.828;3.228;2023-06-14T04:25:02;19.70;60.00
49579;DHT22;35483;50.828;3.228;2023-06-14T04:27:28;19.70;59.90
49579;DHT22;35483;50.828;3.228;2023-06-14T04:29:57;19.70;60.00
49579;DHT22;35483;50.828;3.228;2023-06-14T04:32:26;19.70;59.90
49579;DHT22;35483;50.828;3.228;2023-06-14T04:34:57;19.70;59.90
49579;DHT22;35483;50.828;3.228;2023-06-14T04:37:25;19.80;61.40
49579;DHT22;35483;50.828;3.228;2023-06-14T04:39:56;19.80;59.80
49579;DHT22;35483;50.828;3.228;2023-06-14T04:42:22;19.90;59.70
49579;DHT22;35483;50.828;3.228;2023-06-14T04:44:51;19.90;59.80
49579;DHT22;35483;50.828;3.228;2023-06-14T04:47:22;19.90;59.70
49579;DHT22;35483;50.828;3.228;2023-06-14T04:49:48;20.00;59.60
49579;DHT22;35483;50.828;3.228;2023-06-14T04:52:14;20.00;59.30
49579;DHT22;35483;50.828;3.228;2023-06-14T04:54:41;20.10;59.70
49579;DHT22;35483;50.828;3.228;2023-06-14T04:57:12;20.10;59.60
49579;DHT22;35483;50.828;3.228;2023-06-14T04:59:45;20.10;60.00
49579;DHT22;35483;50.828;3.228;2023-06-14T05:02:11;20.20;59.90
49579;DHT22;35483;50.828;3.228;2023-06-14T05:04:38;20.20;59.40
49579;DHT22;35483;50.828;3.228;2023-06-14T05:07:08;20.20;59.50
49579;DHT22;35483;50.828;3.228;2023-06-14T05:09:35;20.30;59.80
49579;DHT22;35483;50.828;3.228;2023-06-14T05:12:01;20.30;59.20
49579;DHT22;35483;50.828;3.228;2023-06-14T05:14:28;20.40;59.30
49579;DHT22;35483;50.828;3.228;2023-06-14T05:16:54;20.40;59.40
49579;DHT22;35483;50.828;3.228;2023-06-14T05:19:20;20.50;59.20
49579;DHT22;35483;50.828;3.228;2023-06-14T05:21:47;20.60;59.20
49579;DHT22;35483;50.828;3.228;2023-06-14T05:24:14;20.60;59.10
49579;DHT22;35483;50.828;3.228;2023-06-14T05:26:40;20.70;59.40
49579;DHT22;35483;50.828;3.228;2023-06-14T05:29:06;20.80;59.50
49579;DHT22;35483;50.828;3.228;2023-06-14T05:31:32;20.90;59.30
49579;DHT22;35483;50.828;3.228;2023-06-14T05:33:58;21.20;59.20
49579;DHT22;35483;50.828;3.228;2023-06-14T05:36:25;23.00;57.00
49579;DHT22;35483;50.828;3.228;2023-06-14T05:38:53;24.90;54.50
49579;DHT22;35483;50.828;3.228;2023-06-14T05:41:26;26.70;52.80
49579;DHT22;35483;50.828;3.228;2023-06-14T05:43:57;28.20;51.10
49579;DHT22;35483;50.828;3.228;2023-06-14T05:46:23;29.40;50.30
49579;DHT22;35483;50.828;3.228;2023-06-14T05:48:53;30.40;49.20
49579;DHT22;35483;50.828;3.228;2023-06-14T05:51:19;31.30;48.40
49579;DHT22;35483;50.828;3.228;2023-06-14T05:53:46;31.70;48.10
49579;DHT22;35483;50.828;3.228;2023-06-14T05:56:12;32.00;47.80
49579;DHT22;35483;50.828;3.228;2023-06-14T05:58:39;32.40;47.60
49579;DHT22;35483;50.828;3.228;2023-06-14T06:01:05;32.70;47.40
49579;DHT22;35483;50.828;3.228;2023-06-14T06:03:31;32.80;47.40
49579;DHT22;35483;50.828;3.228;2023-06-14T06:05:58;32.80;47.40
49579;DHT22;35483;50.828;3.228;2023-06-14T06:08:24;32.90;47.30
49579;DHT22;35483;50.828;3.228;2023-06-14T06:10:50;33.30;46.90
49579;DHT22;35483;50.828;3.228;2023-06-14T06:13:16;33.60;46.80
49579;DHT22;35483;50.828;3.228;2023-06-14T06:15:42;33.60;46.60
49579;DHT22;35483;50.828;3.228;2023-06-14T06:18:08;32.40;46.90
49579;DHT22;35483;50.828;3.228;2023-06-14T06:20:34;30.30;48.70
49579;DHT22;35483;50.828;3.228;2023-06-14T06:23:02;28.50;50.80
49579;DHT22;35483;50.828;3.228;2023-06-14T06:25:29;26.90;52.40
49579;DHT22;35483;50.828;3.228;2023-06-14T06:27:57;25.90;53.50
49579;DHT22;35483;50.828;3.228;2023-06-14T06:30:24;25.10;54.20
49579;DHT22;35483;50.828;3.228;2023-06-14T06:32:51;24.70;54.70
49579;DHT22;35483;50.828;3.228;2023-06-14T06:35:17;24.30;55.20
49579;DHT22;35483;50.828;3.228;2023-06-14T06:37:43;24.10;55.40
49579;DHT22;35483;50.828;3.228;2023-06-14T06:40:09;23.90;55.70
49579;DHT22;35483;50.828;3.228;2023-06-14T06:42:36;23.70;55.90
49579;DHT22;35483;50.828;3.228;2023-06-14T06:45:04;23.60;55.90
49579;DHT22;35483;50.828;3.228;2023-06-14T06:47:30;23.60;56.10
49579;DHT22;35483;50.828;3.228;2023-06-14T06:49:56;23.50;56.00
49579;DHT22;35483;50.828;3.228;2023-06-14T06:52:22;23.50;56.10
49579;DHT22;35483;50.828;3.228;2023-06-14T06:54:48;23.50;56.10
49579;DHT22;35483;50.828;3.228;2023-06-14T06:57:14;23.50;56.20
49579;DHT22;35483;50.828;3.228;2023-06-14T06:59:40;23.50;56.20
49579;DHT22;35483;50.828;3.228;2023-06-14T07:02:06;23.50;56.20
49579;DHT22;35483;50.828;3.228;2023-06-14T07:04:32;23.50;56.20
49579;DHT22;35483;50.828;3.228;2023-06-14T07:06:58;23.60;56.20
49579;DHT22;35483;50.828;3.228;2023-06-14T07:09:25;23.60;56.20
49579;DHT22;35483;50.828;3.228;2023-06-14T07:11:51;23.60;56.20
49579;DHT22;35483;50.828;3.228;2023-06-14T07:14:18;23.60;56.20
49579;DHT22;35483;50.828;3.228;2023-06-14T07:16:45;23.60;56.30
49579;DHT22;35483;50.828;3.228;2023-06-14T07:19:11;23.60;56.40
49579;DHT22;35483;50.828;3.228;2023-06-14T07:21:37;23.60;56.40
49579;DHT22;35483;50.828;3.228;2023-06-14T07:24:07;23.70;56.40
49579;DHT22;35483;50.828;3.228;2023-06-14T07:26:33;23.70;56.30
49579;DHT22;35483;50.828;3.228;2023-06-14T07:29:02;23.80;56.30
49579;DHT22;35483;50.828;3.228;2023-06-14T07:31:28;23.80;56.20
49579;DHT22;35483;50.828;3.228;2023-06-14T07:33:54;23.90;56.30
49579;DHT22;35483;50.828;3.228;2023-06-14T07:36:20;23.90;56.20
49579;DHT22;35483;50.828;3.228;2023-06-14T07:38:46;23.90;56.30
49579;DHT22;35483;50.828;3.228;2023-06-14T07:41:13;23.90;56.30
49579;DHT22;35483;50.828;3.228;2023-06-14T07:43:39;24.00;56.30
49579;DHT22;35483;50.828;3.228;2023-06-14T07:46:05;24.00;56.30
49579;DHT22;35483;50.828;3.228;2023-06-14T07:48:31;24.00;56.30
49579;DHT22;35483;50.828;3.228;2023-06-14T07:50:57;24.10;56.20
49579;DHT22;35483;50.828;3.228;2023-06-14T07:53:24;24.10;56.10
49579;DHT22;35483;50.828;3.228;2023-06-14T07:55:50;24.20;56.20
49579;DHT22;35483;50.828;3.228;2023-06-14T07:58:16;24.20;56.20
49579;DHT22;35483;50.828;3.228;2023-06-14T08:00:42;24.20;56.20
49579;DHT22;35483;50.828;3.228;2023-06-14T08:03:08;24.30;56.20
49579;DHT22;35483;50.828;3.228;2023-06-14T08:05:34;24.30;56.20
49579;DHT22;35483;50.828;3.228;2023-06-14T08:08:00;24.30;56.00
49579;DHT22;35483;50.828;3.228;2023-06-14T08:10:26;24.40;56.10
49579;DHT22;35483;50.828;3.228;2023-06-14T08:12:52;24.40;56.10
49579;DHT22;35483;50.828;3.228;2023-06-14T08:15:18;24.50;56.20
49579;DHT22;35483;50.828;3.228;2023-06-14T08:17:44;24.50;56.10
49579;DHT22;35483;50.828;3.228;2023-06-14T08:20:11;24.60;56.10
49579;DHT22;35483;50.828;3.228;2023-06-14T08:22:37;24.70;56.00
49579;DHT22;35483;50.828;3.228;2023-06-14T08:25:03;24.70;56.00
49579;DHT22;35483;50.828;3.228;2023-06-14T08:27:30;24.70;56.10
49579;DHT22;35483;50.828;3.228;2023-06-14T08:29:56;24.80;56.00
49579;DHT22;35483;50.828;3.228;2023-06-14T08:32:22;24.90;55.90
49579;DHT22;35483;50.828;3.228;2023-06-14T08:34:48;25.00;56.00
49579;DHT22;35483;50.828;3.228;2023-06-14T08:37:15;25.00;56.00
49579;DHT22;35483;50.828;3.228;2023-06-14T08:39:41;25.00;55.70
49579;DHT22;35483;50.828;3.228;2023-06-14T08:42:09;25.10;55.80
49579;DHT22;35483;50.828;3.228;2023-06-14T08:44:36;25.10;55.40
49579;DHT22;35483;50.828;3.228;2023-06-14T08:47:02;25.20;56.00
49579;DHT22;35483;50.828;3.228;2023-06-14T08:49:32;25.20;55.90
49579;DHT22;35483;50.828;3.228;2023-06-14T08:52:00;25.30;55.80
49579;DHT22;35483;50.828;3.228;2023-06-14T08:54:29;25.30;55.70
49579;DHT22;35483;50.828;3.228;2023-06-14T08:57:02;25.40;55.60
49579;DHT22;35483;50.828;3.228;2023-06-14T08:59:30;25.40;55.70
49579;DHT22;35483;50.828;3.228;2023-06-14T09:01:59;25.50;55.70
49579;DHT22;35483;50.828;3.228;2023-06-14T09:04:25;25.60;55.80
49579;DHT22;35483;50.828;3.228;2023-06-14T09:06:55;25.60;55.60
49579;DHT22;35483;50.828;3.228;2023-06-14T09:09:22;25.60;55.60
49579;DHT22;35483;50.828;3.228;2023-06-14T09:11:54;25.60;54.30
49579;DHT22;35483;50.828;3.228;2023-06-14T09:14:24;25.70;55.60
49579;DHT22;35483;50.828;3.228;2023-06-14T09:16:54;25.70;55.10
49579;DHT22;35483;50.828;3.228;2023-06-14T09:19:23;25.80;54.30
49579;DHT22;35483;50.828;3.228;2023-06-14T09:21:50;25.90;55.30
49579;DHT22;35483;50.828;3.228;2023-06-14T09:24:18;25.90;55.40
49579;DHT22;35483;50.828;3.228;2023-06-14T09:26:47;25.90;55.10
49579;DHT22;35483;50.828;3.228;2023-06-14T09:29:13;26.00;55.50
49579;DHT22;35483;50.828;3.228;2023-06-14T09:31:39;26.00;55.00
49579;DHT22;35483;50.828;3.228;2023-06-14T09:34:05;26.00;55.00
49579;DHT22;35483;50.828;3.228;2023-06-14T09:36:32;26.00;54.50
49579;DHT22;35483;50.828;3.228;2023-06-14T09:39:01;26.10;54.50
49579;DHT22;35483;50.828;3.228;2023-06-14T09:41:32;26.10;54.60
49579;DHT22;35483;50.828;3.228;2023-06-14T09:44:00;26.10;54.80
49579;DHT22;35483;50.828;3.228;2023-06-14T09:46:30;26.20;54.90
49579;DHT22;35483;50.828;3.228;2023-06-14T09:49:00;26.20;54.60
49579;DHT22;35483;50.828;3.228;2023-06-14T09:51:27;26.30;54.30
49579;DHT22;35483;50.828;3.228;2023-06-14T09:54:00;26.30;55.50
49579;DHT22;35483;50.828;3.228;2023-06-14T09:56:38;26.40;54.60
49579;DHT22;35483;50.828;3.228;2023-06-14T09:59:32;26.40;49.80
49579;DHT22;35483;50.828;3.228;2023-06-14T10:02:18;26.40;48.10
49579;DHT22;35483;50.828;3.228;2023-06-14T10:04:53;26.40;53.80
49579;DHT22;35483;50.828;3.228;2023-06-14T10:07:24;26.50;53.30
49579;DHT22;35483;50.828;3.228;2023-06-14T10:09:53;26.50;54.60
49579;DHT22;35483;50.828;3.228;2023-06-14T10:12:19;26.60;54.60
49579;DHT22;35483;50.828;3.228;2023-06-14T10:14:49;26.60;54.60
49579;DHT22;35483;50.828;3.228;2023-06-14T10:17:43;26.70;54.30
49579;DHT22;35483;50.828;3.228;2023-06-14T10:22:51;26.80;51.80
49579;DHT22;35483;50.828;3.228;2023-06-14T10:25:29;26.90;53.30
49579;DHT22;35483;50.828;3.228;2023-06-14T10:28:20;26.90;53.00
49579;DHT22;35483;50.828;3.228;2023-06-14T10:31:08;26.90;51.80
49579;DHT22;35483;50.828;3.228;2023-06-14T10:33:56;26.90;53.80
49579;DHT22;35483;50.828;3.228;2023-06-14T10:39:05;26.80;54.20
49579;DHT22;35483;50.828;3.228;2023-06-14T10:41:36;26.80;51.80
49579;DHT22;35483;50.828;3.228;2023-06-14T10:46:40;27.00;49.20
49579;DHT22;35483;50.828;3.228;2023-06-14T10:49:12;27.00;54.40
49579;DHT22;35483;50.828;3.228;2023-06-14T10:51:45;27.00;54.10
49579;DHT22;35483;50.828;3.228;2023-06-14T10:54:15;27.10;52.20
49579;DHT22;35483;50.828;3.228;2023-06-14T10:56:51;27.10;54.20
49579;DHT22;35483;50.828;3.228;2023-06-14T10:59:18;27.20;49.70
49579;DHT22;35483;50.828;3.228;2023-06-14T11:04:51;27.30;49.40
49579;DHT22;35483;50.828;3.228;2023-06-14T11:12:41;27.30;52.70
49579;DHT22;35483;50.828;3.228;2023-06-14T11:15:09;27.40;54.20
49579;DHT22;35483;50.828;3.228;2023-06-14T11:17:35;27.40;54.00
49579;DHT22;35483;50.828;3.228;2023-06-14T11:20:12;27.40;53.90
49579;DHT22;35483;50.828;3.228;2023-06-14T11:22:42;27.40;51.00
49579;DHT22;35483;50.828;3.228;2023-06-14T11:25:12;27.40;54.10
49579;DHT22;35483;50.828;3.228;2023-06-14T11:27:37;27.50;51.90
49579;DHT22;35483;50.828;3.228;2023-06-14T11:30:07;27.60;53.90
49579;DHT22;35483;50.828;3.228;2023-06-14T11:32:33;27.60;53.40
49579;DHT22;35483;50.828;3.228;2023-06-14T11:34:59;27.60;54.10
49579;DHT22;35483;50.828;3.228;2023-06-14T11:37:27;27.60;54.10
49579;DHT22;35483;50.828;3.228;2023-06-14T11:39:57;27.60;53.70
49579;DHT22;35483;50.828;3.228;2023-06-14T11:42:24;27.60;51.50
49579;DHT22;35483;50.828;3.228;2023-06-14T11:44:50;27.60;53.90
49579;DHT22;35483;50.828;3.228;2023-06-14T11:47:16;27.70;54.10
49579;DHT22;35483;50.828;3.228;2023-06-14T11:49:42;27.70;52.80
49579;DHT22;35483;50.828;3.228;2023-06-14T11:52:08;27.60;53.60
49579;DHT22;35483;50.828;3.228;2023-06-14T11:54:35;27.60;53.70
49579;DHT22;35483;50.828;3.228;2023-06-14T11:57:00;27.50;53.70
49579;DHT22;35483;50.828;3.228;2023-06-14T11:59:26;27.50;53.80
49579;DHT22;35483;50.828;3.228;2023-06-14T12:01:53;27.60;53.80
49579;DHT22;35483;50.828;3.228;2023-06-14T12:04:29;27.50;53.80
49579;DHT22;35483;50.828;3.228;2023-06-14T12:06:55;27.50;50.90
49579;DHT22;35483;50.828;3.228;2023-06-14T12:09:23;27.50;53.50
49579;DHT22;35483;50.828;3.228;2023-06-14T12:11:49;27.60;53.50
49579;DHT22;35483;50.828;3.228;2023-06-14T12:14:16;27.60;53.70
49579;DHT22;35483;50.828;3.228;2023-06-14T12:16:44;27.60;53.60
49579;DHT22;35483;50.828;3.228;2023-06-14T12:19:16;27.60;53.40
49579;DHT22;35483;50.828;3.228;2023-06-14T12:21:45;27.60;50.50
49579;DHT22;35483;50.828;3.228;2023-06-14T12:24:13;27.60;53.70
49579;DHT22;35483;50.828;3.228;2023-06-14T12:26:40;27.70;53.70
49579;DHT22;35483;50.828;3.228;2023-06-14T12:29:06;27.70;53.50
49579;DHT22;35483;50.828;3.228;2023-06-14T12:31:33;27.70;50.90
49579;DHT22;35483;50.828;3.228;2023-06-14T12:33:59;27.70;53.60
49579;DHT22;35483;50.828;3.228;2023-06-14T12:36:26;27.60;53.70
49579;DHT22;35483;50.828;3.228;2023-06-14T12:38:52;27.60;53.60
49579;DHT22;35483;50.828;3.228;2023-06-14T12:41:21;27.50;53.40
49579;DHT22;35483;50.828;3.228;2023-06-14T12:43:48;27.50;53.20
49579;DHT22;35483;50.828;3.228;2023-06-14T12:46:14;27.50;53.40
49579;DHT22;35483;50.828;3.228;2023-06-14T12:48:40;27.50;53.60
49579;DHT22;35483;50.828;3.228;2023-06-14T12:51:06;27.50;53.60
49579;DHT22;35483;50.828;3.228;2023-06-14T12:53:32;27.50;53.60
49579;DHT22;35483;50.828;3.228;2023-06-14T12:55:57;27.40;53.60
49579;DHT22;35483;50.828;3.228;2023-06-14T12:58:23;27.40;53.50
49579;DHT22;35483;50.828;3.228;2023-06-14T13:00:49;27.50;53.60
49579;DHT22;35483;50.828;3.228;2023-06-14T13:03:15;27.50;53.60
49579;DHT22;35483;50.828;3.228;2023-06-14T13:05:41;27.70;53.60
49579;DHT22;35483;50.828;3.228;2023-06-14T13:08:08;27.70;53.40
49579;DHT22;35483;50.828;3.228;2023-06-14T13:10:34;27.80;53.40
49579;DHT22;35483;50.828;3.228;2023-06-14T13:13:00;27.80;53.40
49579;DHT22;35483;50.828;3.228;2023-06-14T13:15:26;27.80;53.40
49579;DHT22;35483;50.828;3.228;2023-06-14T13:17:52;27.80;53.40
49579;DHT22;35483;50.828;3.228;2023-06-14T13:20:18;27.80;53.40
49579;DHT22;35483;50.828;3.228;2023-06-14T13:22:44;27.90;53.30
49579;DHT22;35483;50.828;3.228;2023-06-14T13:25:09;27.90;53.30
49579;DHT22;35483;50.828;3.228;2023-06-14T13:27:35;27.90;53.30
49579;DHT22;35483;50.828;3.228;2023-06-14T13:30:01;27.90;53.40
49579;DHT22;35483;50.828;3.228;2023-06-14T13:32:27;28.00;53.40
49579;DHT22;35483;50.828;3.228;2023-06-14T13:34:53;28.00;53.40
49579;DHT22;35483;50.828;3.228;2023-06-14T13:37:19;28.10;53.40
49579;DHT22;35483;50.828;3.228;2023-06-14T13:39:45;28.10;53.30
49579;DHT22;35483;50.828;3.228;2023-06-14T13:42:10;28.10;53.30
49579;DHT22;35483;50.828;3.228;2023-06-14T13:44:36;28.00;53.10
49579;DHT22;35483;50.828;3.228;2023-06-14T13:47:02;28.10;53.20
49579;DHT22;35483;50.828;3.228;2023-06-14T13:49:28;28.00;53.20
49579;DHT22;35483;50.828;3.228;2023-06-14T13:51:54;28.10;53.20
49579;DHT22;35483;50.828;3.228;2023-06-14T13:54:20;28.00;52.30
49579;DHT22;35483;50.828;3.228;2023-06-14T13:56:46;28.00;53.20
49579;DHT22;35483;50.828;3.228;2023-06-14T13:59:12;28.10;53.10
49579;DHT22;35483;50.828;3.228;2023-06-14T14:01:38;28.10;52.90
49579;DHT22;35483;50.828;3.228;2023-06-14T14:04:04;28.10;52.90
49579;DHT22;35483;50.828;3.228;2023-06-14T14:06:30;28.10;52.80
49579;DHT22;35483;50.828;3.228;2023-06-14T14:08:56;28.10;52.90
49579;DHT22;35483;50.828;3.228;2023-06-14T14:11:22;28.10;53.00
49579;DHT22;35483;50.828;3.228;2023-06-14T14:13:48;28.20;53.00
49579;DHT22;35483;50.828;3.228;2023-06-14T14:16:14;28.20;52.90
49579;DHT22;35483;50.828;3.228;2023-06-14T14:18:40;28.20;52.90
49579;DHT22;35483;50.828;3.228;2023-06-14T14:21:06;28.30;53.00
49579;DHT22;35483;50.828;3.228;2023-06-14T14:23:31;28.30;52.80
49579;DHT22;35483;50.828;3.228;2023-06-14T14:25:57;28.30;52.90
49579;DHT22;35483;50.828;3.228;2023-06-14T14:28:23;28.30;53.50
49579;DHT22;35483;50.828;3.228;2023-06-14T14:30:48;28.40;52.90
49579;DHT22;35483;50.828;3.228;2023-06-14T14:33:15;28.40;53.00
49579;DHT22;35483;50.828;3.228;2023-06-14T14:35:43;28.40;52.80
49579;DHT22;35483;50.828;3.228;2023-06-14T14:38:09;28.40;52.80
49579;DHT22;35483;50.828;3.228;2023-06-14T14:40:35;28.40;52.90
49579;DHT22;35483;50.828;3.228;2023-06-14T14:43:01;28.30;52.60
49579;DHT22;35483;50.828;3.228;2023-06-14T14:45:26;28.30;52.50
49579;DHT22;35483;50.828;3.228;2023-06-14T14:47:52;28.30;52.40
49579;DHT22;35483;50.828;3.228;2023-06-14T14:50:18;28.30;52.60
49579;DHT22;35483;50.828;3.228;2023-06-14T14:52:43;28.40;52.80
49579;DHT22;35483;50.828;3.228;2023-06-14T14:55:09;28.40;52.50
49579;DHT22;35483;50.828;3.228;2023-06-14T14:57:35;28.40;52.70
49579;DHT22;35483;50.828;3.228;2023-06-14T15:00:03;28.40;52.50
49579;DHT22;35483;50.828;3.228;2023-06-14T15:02:29;28.40;52.60
49579;DHT22;35483;50.828;3.228;2023-06-14T15:04:54;28.40;52.50
49579;DHT22;35483;50.828;3.228;2023-06-14T15:07:22;28.50;52.50
49579;DHT22;35483;50.828;3.228;2023-06-14T15:09:48;28.50;52.50
49579;DHT22;35483;50.828;3.228;2023-06-14T15:12:16;28.50;52.50
49579;DHT22;35483;50.828;3.228;2023-06-14T15:14:42;28.50;52.50
49579;DHT22;35483;50.828;3.228;2023-06-14T15:17:07;28.60;52.60
49579;DHT22;35483;50.828;3.228;2023-06-14T15:19:33;28.60;52.60
49579;DHT22;35483;50.828;3.228;2023-06-14T15:21:59;28.70;52.60
49579;DHT22;35483;50.828;3.228;2023-06-14T15:24:26;28.70;52.40
49579;DHT22;35483;50.828;3.228;2023-06-14T15:26:53;28.50;52.30
49579;DHT22;35483;50.828;3.228;2023-06-14T15:29:19;28.50;52.50
49579;DHT22;35483;50.828;3.228;2023-06-14T15:31:44;28.40;52.30
49579;DHT22;35483;50.828;3.228;2023-06-14T15:34:10;28.40;52.40
49579;DHT22;35483;50.828;3.228;2023-06-14T15:36:36;28.50;52.60
49579;DHT22;35483;50.828;3.228;2023-06-14T15:39:01;28.50;52.40
49579;DHT22;35483;50.828;3.228;2023-06-14T15:41:27;28.50;52.40
49579;DHT22;35483;50.828;3.228;2023-06-14T15:43:53;28.50;52.30
49579;DHT22;35483;50.828;3.228;2023-06-14T15:46:21;28.50;52.60
49579;DHT22;35483;50.828;3.228;2023-06-14T15:48:48;28.50;52.30